Terminal Aerodrome Forecast
Issued by NWS Wilmington, OH

Home | Current Version | Previous Version | Text Only | Print | Product List | Glossary On
Versions: 1 2 3 4 5 6 7 8 9 10 11 12 13 14 15 16 17 18 19 20 21 22 23 24 25 26 27 28 29
432
FTUS41 KILN 231702 AAB
TAFILN
TAF AMD
KILN 231702Z 2317/2412 21012G20KT P6SM VCSH OVC008
      TEMPO 2317/2321 5SM -SHRA OVC006
     FM232300 26008KT P6SM OVC022
     FM240400 33004KT 5SM BR OVC015
     FM240700 02004KT 5SM BR VCSH OVC008
     FM241100 07005KT 5SM -SHRA OVC012=

USA.gov is the U.S. government's official web portal to all federal, state and local government web resources and services.